sensor_id;sensor_type;location;lat;lon;timestamp;temperature;humidity
782;DHT22;374;52.568;13.402;2022-12-20T00:02:10;3.90;99.90
782;DHT22;374;52.568;13.402;2022-12-20T00:04:35;3.90;99.90
782;DHT22;374;52.568;13.402;2022-12-20T00:07:01;3.90;99.90
782;DHT22;374;52.568;13.402;2022-12-20T00:09:27;4.10;99.90
782;DHT22;374;52.568;13.402;2022-12-20T00:11:52;4.10;99.90
782;DHT22;374;52.568;13.402;2022-12-20T00:14:18;4.00;99.90
782;DHT22;374;52.568;13.402;2022-12-20T00:16:43;4.00;99.90
782;DHT22;374;52.568;13.402;2022-12-20T00:19:10;3.90;99.90
782;DHT22;374;52.568;13.402;2022-12-20T00:21:36;4.00;99.90
782;DHT22;374;52.568;13.402;2022-12-20T00:24:03;4.10;99.90
782;DHT22;374;52.568;13.402;2022-12-20T00:26:31;3.80;99.90
782;DHT22;374;52.568;13.402;2022-12-20T00:28:57;3.90;99.90
782;DHT22;374;52.568;13.402;2022-12-20T00:31:24;3.80;99.90
782;DHT22;374;52.568;13.402;2022-12-20T00:33:51;3.80;99.90
782;DHT22;374;52.568;13.402;2022-12-20T00:36:19;4.00;99.90
782;DHT22;374;52.568;13.402;2022-12-20T00:38:46;4.10;99.90
782;DHT22;374;52.568;13.402;2022-12-20T00:41:14;3.80;99.90
782;DHT22;374;52.568;13.402;2022-12-20T00:43:41;4.00;99.90
782;DHT22;374;52.568;13.402;2022-12-20T00:46:07;3.90;99.90
782;DHT22;374;52.568;13.402;2022-12-20T00:48:36;3.90;99.90
782;DHT22;374;52.568;13.402;2022-12-20T00:51:05;3.80;99.90
782;DHT22;374;52.568;13.402;2022-12-20T00:53:31;3.90;99.90
782;DHT22;374;52.568;13.402;2022-12-20T00:55:58;4.00;99.90
782;DHT22;374;52.568;13.402;2022-12-20T00:58:24;3.80;99.90
782;DHT22;374;52.568;13.402;2022-12-20T01:00:49;3.90;99.90
782;DHT22;374;52.568;13.402;2022-12-20T01:03:15;3.90;99.90
782;DHT22;374;52.568;13.402;2022-12-20T01:05:52;3.90;99.90
782;DHT22;374;52.568;13.402;2022-12-20T01:08:18;4.00;99.90
782;DHT22;374;52.568;13.402;2022-12-20T01:10:43;4.10;99.90
782;DHT22;374;52.568;13.402;2022-12-20T01:13:09;3.80;99.90
782;DHT22;374;52.568;13.402;2022-12-20T01:15:35;3.80;99.90
782;DHT22;374;52.568;13.402;2022-12-20T01:18:00;3.90;99.90
782;DHT22;374;52.568;13.402;2022-12-20T01:20:25;4.00;99.90
782;DHT22;374;52.568;13.402;2022-12-20T01:22:51;3.90;99.90
782;DHT22;374;52.568;13.402;2022-12-20T01:25:16;3.80;99.90
782;DHT22;374;52.568;13.402;2022-12-20T01:27:42;4.10;99.90
782;DHT22;374;52.568;13.402;2022-12-20T01:30:08;4.10;99.90
782;DHT22;374;52.568;13.402;2022-12-20T01:32:34;4.00;99.90
782;DHT22;374;52.568;13.402;2022-12-20T01:34:59;4.10;99.90
782;DHT22;374;52.568;13.402;2022-12-20T01:37:25;4.10;99.90
782;DHT22;374;52.568;13.402;2022-12-20T01:39:50;4.10;99.90
782;DHT22;374;52.568;13.402;2022-12-20T01:42:16;4.00;99.90
782;DHT22;374;52.568;13.402;2022-12-20T01:47:08;4.20;99.90
782;DHT22;374;52.568;13.402;2022-12-20T01:49:43;4.00;99.90
782;DHT22;374;52.568;13.402;2022-12-20T01:54:51;3.90;99.90
782;DHT22;374;52.568;13.402;2022-12-20T01:57:26;4.00;99.90
782;DHT22;374;52.568;13.402;2022-12-20T01:59:54;4.20;99.90
782;DHT22;374;52.568;13.402;2022-12-20T02:02:20;4.00;99.90
782;DHT22;374;52.568;13.402;2022-12-20T02:04:45;4.00;99.90
782;DHT22;374;52.568;13.402;2022-12-20T02:07:14;4.20;99.90
782;DHT22;374;52.568;13.402;2022-12-20T02:09:42;4.20;99.90
782;DHT22;374;52.568;13.402;2022-12-20T02:12:11;4.00;99.90
782;DHT22;374;52.568;13.402;2022-12-20T02:20:45;3.90;99.90
782;DHT22;374;52.568;13.402;2022-12-20T02:31:38;3.90;99.90
782;DHT22;374;52.568;13.402;2022-12-20T02:34:07;4.10;99.90
782;DHT22;374;52.568;13.402;2022-12-20T02:36:33;4.20;99.90
782;DHT22;374;52.568;13.402;2022-12-20T02:38:59;4.10;99.90
782;DHT22;374;52.568;13.402;2022-12-20T02:41:31;4.10;99.90
782;DHT22;374;52.568;13.402;2022-12-20T02:44:03;4.10;99.90
782;DHT22;374;52.568;13.402;2022-12-20T02:46:49;4.10;99.90
782;DHT22;374;52.568;13.402;2022-12-20T02:49:17;4.10;99.90
782;DHT22;374;52.568;13.402;2022-12-20T02:51:45;4.10;99.90
782;DHT22;374;52.568;13.402;2022-12-20T02:54:12;4.00;99.90
782;DHT22;374;52.568;13.402;2022-12-20T02:59:20;4.10;99.90
782;DHT22;374;52.568;13.402;2022-12-20T03:01:49;4.10;99.90
782;DHT22;374;52.568;13.402;2022-12-20T03:04:17;4.00;99.90
782;DHT22;374;52.568;13.402;2022-12-20T03:07:00;4.20;99.90
782;DHT22;374;52.568;13.402;2022-12-20T03:09:27;4.10;99.90
782;DHT22;374;52.568;13.402;2022-12-20T03:11:54;4.30;99.90
782;DHT22;374;52.568;13.402;2022-12-20T03:14:20;4.10;99.90
782;DHT22;374;52.568;13.402;2022-12-20T03:16:45;4.00;99.90
782;DHT22;374;52.568;13.402;2022-12-20T03:19:11;4.00;99.90
782;DHT22;374;52.568;13.402;2022-12-20T03:21:37;4.20;99.90
782;DHT22;374;52.568;13.402;2022-12-20T03:24:02;4.30;99.90
782;DHT22;374;52.568;13.402;2022-12-20T03:26:28;4.10;99.90
782;DHT22;374;52.568;13.402;2022-12-20T03:28:53;4.30;99.90
782;DHT22;374;52.568;13.402;2022-12-20T03:31:19;4.20;99.90
782;DHT22;374;52.568;13.402;2022-12-20T03:33:45;4.30;99.90
782;DHT22;374;52.568;13.402;2022-12-20T03:36:10;4.30;99.90
782;DHT22;374;52.568;13.402;2022-12-20T03:38:36;4.20;99.90
782;DHT22;374;52.568;13.402;2022-12-20T03:41:01;4.20;99.90
782;DHT22;374;52.568;13.402;2022-12-20T03:43:27;4.30;99.90
782;DHT22;374;52.568;13.402;2022-12-20T03:45:52;4.20;99.90
782;DHT22;374;52.568;13.402;2022-12-20T03:48:18;4.30;99.90
782;DHT22;374;52.568;13.402;2022-12-20T03:50:43;4.40;99.90
782;DHT22;374;52.568;13.402;2022-12-20T03:53:09;4.30;99.90
782;DHT22;374;52.568;13.402;2022-12-20T03:55:34;4.30;99.90
782;DHT22;374;52.568;13.402;2022-12-20T03:58:00;4.30;99.90
782;DHT22;374;52.568;13.402;2022-12-20T04:00:25;4.40;99.90
782;DHT22;374;52.568;13.402;2022-12-20T04:02:51;4.40;99.90
782;DHT22;374;52.568;13.402;2022-12-20T04:05:17;4.50;99.90
782;DHT22;374;52.568;13.402;2022-12-20T04:07:42;4.20;99.90
782;DHT22;374;52.568;13.402;2022-12-20T04:10:10;4.50;99.90
782;DHT22;374;52.568;13.402;2022-12-20T04:12:35;4.40;99.90
782;DHT22;374;52.568;13.402;2022-12-20T04:15:01;4.50;99.90
782;DHT22;374;52.568;13.402;2022-12-20T04:17:27;4.30;99.90
782;DHT22;374;52.568;13.402;2022-12-20T04:19:52;4.30;99.90
782;DHT22;374;52.568;13.402;2022-12-20T04:22:17;4.40;99.90
782;DHT22;374;52.568;13.402;2022-12-20T04:24:43;4.50;99.90
782;DHT22;374;52.568;13.402;2022-12-20T04:27:09;4.20;99.90
782;DHT22;374;52.568;13.402;2022-12-20T04:29:34;4.30;99.90
782;DHT22;374;52.568;13.402;2022-12-20T04:32:00;4.40;99.90
782;DHT22;374;52.568;13.402;2022-12-20T04:34:25;4.20;99.90
782;DHT22;374;52.568;13.402;2022-12-20T04:36:51;4.40;99.90
782;DHT22;374;52.568;13.402;2022-12-20T04:39:16;4.30;99.90
782;DHT22;374;52.568;13.402;2022-12-20T04:41:42;4.40;99.90
782;DHT22;374;52.568;13.402;2022-12-20T04:44:07;4.30;99.90
782;DHT22;374;52.568;13.402;2022-12-20T04:46:56;4.20;99.90
782;DHT22;374;52.568;13.402;2022-12-20T04:49:25;4.20;99.90
782;DHT22;374;52.568;13.402;2022-12-20T04:51:50;4.20;99.90
782;DHT22;374;52.568;13.402;2022-12-20T04:54:16;4.40;99.90
782;DHT22;374;52.568;13.402;2022-12-20T04:56:41;4.40;99.90
782;DHT22;374;52.568;13.402;2022-12-20T04:59:07;4.20;99.90
782;DHT22;374;52.568;13.402;2022-12-20T05:01:32;4.20;99.90
782;DHT22;374;52.568;13.402;2022-12-20T05:03:58;4.20;99.90
782;DHT22;374;52.568;13.402;2022-12-20T05:06:23;4.40;99.90
782;DHT22;374;52.568;13.402;2022-12-20T05:08:49;4.30;99.90
782;DHT22;374;52.568;13.402;2022-12-20T05:11:15;4.30;99.90
782;DHT22;374;52.568;13.402;2022-12-20T05:13:40;4.20;99.90
782;DHT22;374;52.568;13.402;2022-12-20T05:16:06;4.30;99.90
782;DHT22;374;52.568;13.402;2022-12-20T05:18:32;4.20;99.90
782;DHT22;374;52.568;13.402;2022-12-20T05:20:59;4.30;99.90
782;DHT22;374;52.568;13.402;2022-12-20T05:23:43;4.30;99.90
782;DHT22;374;52.568;13.402;2022-12-20T05:26:33;4.30;99.90
782;DHT22;374;52.568;13.402;2022-12-20T05:29:00;4.30;99.90
782;DHT22;374;52.568;13.402;2022-12-20T05:31:26;4.30;99.90
782;DHT22;374;52.568;13.402;2022-12-20T05:33:52;4.20;99.90
782;DHT22;374;52.568;13.402;2022-12-20T05:36:18;4.30;99.90
782;DHT22;374;52.568;13.402;2022-12-20T05:38:44;4.30;99.90
782;DHT22;374;52.568;13.402;2022-12-20T05:41:10;4.40;99.90
782;DHT22;374;52.568;13.402;2022-12-20T05:43:35;4.30;99.90
782;DHT22;374;52.568;13.402;2022-12-20T05:46:03;4.20;99.90
782;DHT22;374;52.568;13.402;2022-12-20T05:48:28;4.50;99.90
782;DHT22;374;52.568;13.402;2022-12-20T05:50:54;4.40;99.90
782;DHT22;374;52.568;13.402;2022-12-20T05:53:20;4.40;99.90
782;DHT22;374;52.568;13.402;2022-12-20T05:55:50;4.50;99.90
782;DHT22;374;52.568;13.402;2022-12-20T05:58:16;4.50;99.90
782;DHT22;374;52.568;13.402;2022-12-20T06:00:43;4.40;99.90
782;DHT22;374;52.568;13.402;2022-12-20T06:03:10;4.30;99.90
782;DHT22;374;52.568;13.402;2022-12-20T06:05:40;4.50;99.90
782;DHT22;374;52.568;13.402;2022-12-20T06:08:07;4.30;99.90
782;DHT22;374;52.568;13.402;2022-12-20T06:10:33;4.40;99.90
782;DHT22;374;52.568;13.402;2022-12-20T06:13:02;4.50;99.90
782;DHT22;374;52.568;13.402;2022-12-20T06:15:28;4.40;99.90
782;DHT22;374;52.568;13.402;2022-12-20T06:17:54;4.40;99.90
782;DHT22;374;52.568;13.402;2022-12-20T06:20:19;4.40;99.90
782;DHT22;374;52.568;13.402;2022-12-20T06:22:44;4.40;99.90
782;DHT22;374;52.568;13.402;2022-12-20T06:25:10;4.40;99.90
782;DHT22;374;52.568;13.402;2022-12-20T06:27:40;4.40;99.90
782;DHT22;374;52.568;13.402;2022-12-20T06:30:07;4.60;99.90
782;DHT22;374;52.568;13.402;2022-12-20T06:32:32;4.40;99.90
782;DHT22;374;52.568;13.402;2022-12-20T06:34:58;4.50;99.90
782;DHT22;374;52.568;13.402;2022-12-20T06:37:24;4.60;99.90
782;DHT22;374;52.568;13.402;2022-12-20T06:39:49;4.60;99.90
782;DHT22;374;52.568;13.402;2022-12-20T06:42:15;4.60;99.90
782;DHT22;374;52.568;13.402;2022-12-20T06:44:40;4.70;99.90
782;DHT22;374;52.568;13.402;2022-12-20T06:47:06;4.60;99.90
782;DHT22;374;52.568;13.402;2022-12-20T06:49:31;4.40;99.90
782;DHT22;374;52.568;13.402;2022-12-20T06:51:57;4.50;99.90
782;DHT22;374;52.568;13.402;2022-12-20T06:54:22;4.70;99.90
782;DHT22;374;52.568;13.402;2022-12-20T06:56:48;4.70;99.90
782;DHT22;374;52.568;13.402;2022-12-20T06:59:17;4.70;99.90
782;DHT22;374;52.568;13.402;2022-12-20T07:01:42;4.50;99.90
782;DHT22;374;52.568;13.402;2022-12-20T07:04:09;4.50;99.90
782;DHT22;374;52.568;13.402;2022-12-20T07:06:34;4.50;99.90
782;DHT22;374;52.568;13.402;2022-12-20T07:08:59;4.70;99.90
782;DHT22;374;52.568;13.402;2022-12-20T07:11:25;4.50;99.90
782;DHT22;374;52.568;13.402;2022-12-20T07:13:54;4.70;99.90
782;DHT22;374;52.568;13.402;2022-12-20T07:16:21;4.50;99.90
782;DHT22;374;52.568;13.402;2022-12-20T07:18:51;4.70;99.90
782;DHT22;374;52.568;13.402;2022-12-20T07:21:17;4.60;99.90
782;DHT22;374;52.568;13.402;2022-12-20T07:23:43;4.50;99.90
782;DHT22;374;52.568;13.402;2022-12-20T07:26:09;4.80;99.90
782;DHT22;374;52.568;13.402;2022-12-20T07:28:36;4.60;99.90
782;DHT22;374;52.568;13.402;2022-12-20T07:31:02;4.50;99.90
782;DHT22;374;52.568;13.402;2022-12-20T07:33:31;4.60;99.90
782;DHT22;374;52.568;13.402;2022-12-20T07:36:01;4.60;99.90
782;DHT22;374;52.568;13.402;2022-12-20T07:38:27;4.80;99.90
782;DHT22;374;52.568;13.402;2022-12-20T07:40:53;4.80;99.90
782;DHT22;374;52.568;13.402;2022-12-20T07:43:19;4.60;99.90
782;DHT22;374;52.568;13.402;2022-12-20T07:45:44;4.80;99.90
782;DHT22;374;52.568;13.402;2022-12-20T07:48:11;4.60;99.90
782;DHT22;374;52.568;13.402;2022-12-20T07:50:37;4.60;99.90
782;DHT22;374;52.568;13.402;2022-12-20T07:53:04;4.80;99.90
782;DHT22;374;52.568;13.402;2022-12-20T07:55:31;4.60;99.90
782;DHT22;374;52.568;13.402;2022-12-20T07:58:02;4.70;99.90
782;DHT22;374;52.568;13.402;2022-12-20T08:00:32;4.60;99.90
782;DHT22;374;52.568;13.402;2022-12-20T08:03:11;4.80;99.90
782;DHT22;374;52.568;13.402;2022-12-20T08:05:41;4.70;99.90
782;DHT22;374;52.568;13.402;2022-12-20T08:08:08;4.70;99.90
782;DHT22;374;52.568;13.402;2022-12-20T08:10:39;4.60;99.90
782;DHT22;374;52.568;13.402;2022-12-20T08:13:06;4.70;99.90
782;DHT22;374;52.568;13.402;2022-12-20T08:15:34;4.60;99.90
782;DHT22;374;52.568;13.402;2022-12-20T08:18:03;4.60;99.90
782;DHT22;374;52.568;13.402;2022-12-20T08:20:30;4.70;99.90
782;DHT22;374;52.568;13.402;2022-12-20T08:22:56;4.80;99.90
782;DHT22;374;52.568;13.402;2022-12-20T08:25:22;4.90;99.90
782;DHT22;374;52.568;13.402;2022-12-20T08:27:51;4.70;99.90
782;DHT22;374;52.568;13.402;2022-12-20T08:30:17;4.70;99.90
782;DHT22;374;52.568;13.402;2022-12-20T08:32:46;4.80;99.90
782;DHT22;374;52.568;13.402;2022-12-20T08:35:12;4.80;99.90
782;DHT22;374;52.568;13.402;2022-12-20T08:37:37;4.90;99.90
782;DHT22;374;52.568;13.402;2022-12-20T08:40:13;4.80;99.90
782;DHT22;374;52.568;13.402;2022-12-20T08:42:39;4.90;99.90
782;DHT22;374;52.568;13.402;2022-12-20T08:45:20;5.00;99.90
782;DHT22;374;52.568;13.402;2022-12-20T08:47:46;4.90;99.90
782;DHT22;374;52.568;13.402;2022-12-20T08:50:12;5.10;99.90
782;DHT22;374;52.568;13.402;2022-12-20T08:52:38;5.00;99.90
782;DHT22;374;52.568;13.402;2022-12-20T08:55:07;5.10;99.90
782;DHT22;374;52.568;13.402;2022-12-20T08:57:33;5.00;99.90
782;DHT22;374;52.568;13.402;2022-12-20T08:59:59;5.10;99.90
782;DHT22;374;52.568;13.402;2022-12-20T09:02:25;5.20;99.90
782;DHT22;374;52.568;13.402;2022-12-20T09:04:50;5.00;99.90
782;DHT22;374;52.568;13.402;2022-12-20T09:07:16;5.20;99.90
782;DHT22;374;52.568;13.402;2022-12-20T09:09:42;5.00;99.90
782;DHT22;374;52.568;13.402;2022-12-20T09:12:07;5.20;99.90
782;DHT22;374;52.568;13.402;2022-12-20T09:14:33;5.00;99.90
782;DHT22;374;52.568;13.402;2022-12-20T09:17:00;5.30;99.90
782;DHT22;374;52.568;13.402;2022-12-20T09:19:28;5.10;99.90
782;DHT22;374;52.568;13.402;2022-12-20T09:21:55;5.20;99.90
782;DHT22;374;52.568;13.402;2022-12-20T09:24:20;5.40;99.90
782;DHT22;374;52.568;13.402;2022-12-20T09:26:46;5.30;99.90
782;DHT22;374;52.568;13.402;2022-12-20T09:29:12;5.40;99.90
782;DHT22;374;52.568;13.402;2022-12-20T09:31:37;5.30;99.90
782;DHT22;374;52.568;13.402;2022-12-20T09:34:03;5.50;99.90
782;DHT22;374;52.568;13.402;2022-12-20T09:36:29;5.30;99.90
782;DHT22;374;52.568;13.402;2022-12-20T09:38:55;5.30;99.90
782;DHT22;374;52.568;13.402;2022-12-20T09:41:47;5.40;99.90
782;DHT22;374;52.568;13.402;2022-12-20T09:44:23;5.50;99.90
782;DHT22;374;52.568;13.402;2022-12-20T09:46:55;5.40;99.90
782;DHT22;374;52.568;13.402;2022-12-20T09:49:24;5.50;99.90
782;DHT22;374;52.568;13.402;2022-12-20T09:58:13;5.50;99.90
782;DHT22;374;52.568;13.402;2022-12-20T10:00:48;5.60;99.90
782;DHT22;374;52.568;13.402;2022-12-20T10:03:37;5.70;99.90
782;DHT22;374;52.568;13.402;2022-12-20T10:11:36;5.80;99.90
782;DHT22;374;52.568;13.402;2022-12-20T10:16:51;5.90;99.90
782;DHT22;374;52.568;13.402;2022-12-20T10:22:36;5.90;99.90
782;DHT22;374;52.568;13.402;2022-12-20T10:27:43;5.90;99.90
782;DHT22;374;52.568;13.402;2022-12-20T10:30:13;5.90;99.90
782;DHT22;374;52.568;13.402;2022-12-20T10:32:53;6.00;99.90
782;DHT22;374;52.568;13.402;2022-12-20T10:35:36;5.90;99.90
782;DHT22;374;52.568;13.402;2022-12-20T10:38:07;5.90;99.90
782;DHT22;374;52.568;13.402;2022-12-20T10:40:40;6.00;99.90
782;DHT22;374;52.568;13.402;2022-12-20T10:43:15;6.10;99.90
782;DHT22;374;52.568;13.402;2022-12-20T10:45:42;5.90;99.90
782;DHT22;374;52.568;13.402;2022-12-20T10:48:30;6.00;99.90
782;DHT22;374;52.568;13.402;2022-12-20T10:51:03;6.10;99.90
782;DHT22;374;52.568;13.402;2022-12-20T10:53:31;6.00;99.90
782;DHT22;374;52.568;13.402;2022-12-20T10:56:16;6.10;99.90
782;DHT22;374;52.568;13.402;2022-12-20T10:59:22;6.20;99.90
782;DHT22;374;52.568;13.402;2022-12-20T11:01:48;6.00;99.90
782;DHT22;374;52.568;13.402;2022-12-20T11:04:35;6.30;99.90
782;DHT22;374;52.568;13.402;2022-12-20T11:07:24;6.20;99.90
782;DHT22;374;52.568;13.402;2022-12-20T11:10:02;6.20;99.90
782;DHT22;374;52.568;13.402;2022-12-20T11:12:28;6.20;99.90
782;DHT22;374;52.568;13.402;2022-12-20T11:15:22;6.20;99.90
782;DHT22;374;52.568;13.402;2022-12-20T11:20:42;6.30;99.90
782;DHT22;374;52.568;13.402;2022-12-20T11:29:16;6.40;99.90
782;DHT22;374;52.568;13.402;2022-12-20T11:32:16;6.30;99.90
782;DHT22;374;52.568;13.402;2022-12-20T11:37:42;6.40;99.90
782;DHT22;374;52.568;13.402;2022-12-20T11:40:49;6.30;99.90
782;DHT22;374;52.568;13.402;2022-12-20T11:45:54;6.30;99.90
782;DHT22;374;52.568;13.402;2022-12-20T11:51:23;6.40;99.90
782;DHT22;374;52.568;13.402;2022-12-20T11:54:00;6.30;99.90
782;DHT22;374;52.568;13.402;2022-12-20T11:56:33;6.50;99.90
782;DHT22;374;52.568;13.402;2022-12-20T11:59:18;6.30;99.90
782;DHT22;374;52.568;13.402;2022-12-20T12:04:35;6.50;99.90
782;DHT22;374;52.568;13.402;2022-12-20T12:12:43;6.60;99.90
782;DHT22;374;52.568;13.402;2022-12-20T12:18:17;6.60;99.90
782;DHT22;374;52.568;13.402;2022-12-20T12:25:46;6.60;99.90
782;DHT22;374;52.568;13.402;2022-12-20T12:28:12;6.40;99.90
782;DHT22;374;52.568;13.402;2022-12-20T12:30:42;6.50;99.90
782;DHT22;374;52.568;13.402;2022-12-20T12:33:19;6.50;99.90
782;DHT22;374;52.568;13.402;2022-12-20T12:36:09;6.50;99.90
782;DHT22;374;52.568;13.402;2022-12-20T12:46:44;6.70;99.90
782;DHT22;374;52.568;13.402;2022-12-20T12:49:16;6.70;99.90
782;DHT22;374;52.568;13.402;2022-12-20T12:51:54;6.70;99.90
782;DHT22;374;52.568;13.402;2022-12-20T12:54:29;6.80;99.90
782;DHT22;374;52.568;13.402;2022-12-20T12:57:17;6.80;99.90
782;DHT22;374;52.568;13.402;2022-12-20T12:59:47;6.80;99.90
782;DHT22;374;52.568;13.402;2022-12-20T13:04:54;6.80;99.90
782;DHT22;374;52.568;13.402;2022-12-20T13:15:02;6.90;99.90
782;DHT22;374;52.568;13.402;2022-12-20T13:17:56;6.90;99.90
782;DHT22;374;52.568;13.402;2022-12-20T13:20:27;6.70;99.90
782;DHT22;374;52.568;13.402;2022-12-20T13:25:39;6.90;99.90
782;DHT22;374;52.568;13.402;2022-12-20T13:38:53;6.90;99.90
782;DHT22;374;52.568;13.402;2022-12-20T13:41:42;6.90;99.90
782;DHT22;374;52.568;13.402;2022-12-20T13:52:11;6.80;99.90
782;DHT22;374;52.568;13.402;2022-12-20T13:54:49;6.80;99.90
782;DHT22;374;52.568;13.402;2022-12-20T13:57:41;6.90;99.90
782;DHT22;374;52.568;13.402;2022-12-20T14:00:23;6.90;99.90
782;DHT22;374;52.568;13.402;2022-12-20T14:02:53;6.90;99.90
782;DHT22;374;52.568;13.402;2022-12-20T14:05:26;6.80;99.90
782;DHT22;374;52.568;13.402;2022-12-20T14:07:58;6.80;99.90
782;DHT22;374;52.568;13.402;2022-12-20T14:10:26;6.80;99.90
782;DHT22;374;52.568;13.402;2022-12-20T14:12:54;6.70;99.90
782;DHT22;374;52.568;13.402;2022-12-20T14:15:32;6.80;99.90
782;DHT22;374;52.568;13.402;2022-12-20T14:18:06;6.80;99.90
782;DHT22;374;52.568;13.402;2022-12-20T14:20:40;6.70;99.90
782;DHT22;374;52.568;13.402;2022-12-20T14:23:16;6.90;99.90
782;DHT22;374;52.568;13.402;2022-12-20T14:25:53;6.70;99.90
782;DHT22;374;52.568;13.402;2022-12-20T14:30:46;6.90;99.90
782;DHT22;374;52.568;13.402;2022-12-20T14:33:34;6.70;99.90
782;DHT22;374;52.568;13.402;2022-12-20T14:38:43;6.70;99.90
782;DHT22;374;52.568;13.402;2022-12-20T14:41:32;6.70;99.90
782;DHT22;374;52.568;13.402;2022-12-20T14:46:31;6.80;99.90
782;DHT22;374;52.568;13.402;2022-12-20T14:49:17;6.90;99.90
782;DHT22;374;52.568;13.402;2022-12-20T14:51:46;6.80;99.90
782;DHT22;374;52.568;13.402;2022-12-20T14:54:29;6.60;99.90
782;DHT22;374;52.568;13.402;2022-12-20T14:56:55;6.80;99.90
782;DHT22;374;52.568;13.402;2022-12-20T14:59:26;6.80;99.90
782;DHT22;374;52.568;13.402;2022-12-20T15:01:53;6.70;99.90
782;DHT22;374;52.568;13.402;2022-12-20T15:06:53;6.70;99.90
782;DHT22;374;52.568;13.402;2022-12-20T15:09:18;6.80;99.90
782;DHT22;374;52.568;13.402;2022-12-20T15:11:45;6.80;99.90
782;DHT22;374;52.568;13.402;2022-12-20T15:17:03;6.70;99.90
782;DHT22;374;52.568;13.402;2022-12-20T15:19:29;6.80;99.90
782;DHT22;374;52.568;13.402;2022-12-20T15:21:56;6.50;99.90
782;DHT22;374;52.568;13.402;2022-12-20T15:24:26;6.50;99.90
782;DHT22;374;52.568;13.402;2022-12-20T15:26:52;7.00;99.90
782;DHT22;374;52.568;13.402;2022-12-20T15:29:20;6.60;99.90
782;DHT22;374;52.568;13.402;2022-12-20T15:31:47;6.70;99.90
782;DHT22;374;52.568;13.402;2022-12-20T15:34:27;6.30;99.90
782;DHT22;374;52.568;13.402;2022-12-20T15:36:53;6.60;99.90
782;DHT22;374;52.568;13.402;2022-12-20T15:39:19;6.70;99.90
782;DHT22;374;52.568;13.402;2022-12-20T15:41:47;6.70;99.90
782;DHT22;374;52.568;13.402;2022-12-20T15:44:18;6.50;99.90
782;DHT22;374;52.568;13.402;2022-12-20T15:46:45;7.00;99.90
782;DHT22;374;52.568;13.402;2022-12-20T15:49:24;6.70;99.90
782;DHT22;374;52.568;13.402;2022-12-20T15:51:51;6.70;99.90
782;DHT22;374;52.568;13.402;2022-12-20T15:54:24;6.60;99.90
782;DHT22;374;52.568;13.402;2022-12-20T15:56:56;6.60;99.90
782;DHT22;374;52.568;13.402;2022-12-20T15:59:22;6.50;99.90
782;DHT22;374;52.568;13.402;2022-12-20T16:01:47;6.50;99.90
782;DHT22;374;52.568;13.402;2022-12-20T16:04:18;6.60;99.90
782;DHT22;374;52.568;13.402;2022-12-20T16:06:45;6.40;99.90
782;DHT22;374;52.568;13.402;2022-12-20T16:09:11;6.50;99.90
782;DHT22;374;52.568;13.402;2022-12-20T16:11:40;6.60;99.90
782;DHT22;374;52.568;13.402;2022-12-20T16:14:17;6.60;99.90
782;DHT22;374;52.568;13.402;2022-12-20T16:16:43;6.60;99.90
782;DHT22;374;52.568;13.402;2022-12-20T16:19:09;7.50;99.90
782;DHT22;374;52.568;13.402;2022-12-20T16:21:43;6.50;99.90
782;DHT22;374;52.568;13.402;2022-12-20T16:24:12;6.60;99.90
782;DHT22;374;52.568;13.402;2022-12-20T16:26:51;6.60;99.90
782;DHT22;374;52.568;13.402;2022-12-20T16:29:17;6.40;99.90
782;DHT22;374;52.568;13.402;2022-12-20T16:31:42;6.50;99.90
782;DHT22;374;52.568;13.402;2022-12-20T16:34:15;6.50;99.90
782;DHT22;374;52.568;13.402;2022-12-20T16:36:41;6.60;99.90
782;DHT22;374;52.568;13.402;2022-12-20T16:39:07;6.50;99.90
782;DHT22;374;52.568;13.402;2022-12-20T16:41:38;6.50;99.90
782;DHT22;374;52.568;13.402;2022-12-20T16:44:05;6.60;99.90
782;DHT22;374;52.568;13.402;2022-12-20T16:46:33;6.50;99.90
782;DHT22;374;52.568;13.402;2022-12-20T16:48:59;6.50;99.90
782;DHT22;374;52.568;13.402;2022-12-20T16:51:41;6.50;99.90
782;DHT22;374;52.568;13.402;2022-12-20T16:54:12;6.50;99.90
782;DHT22;374;52.568;13.402;2022-12-20T16:56:39;6.60;99.90
782;DHT22;374;52.568;13.402;2022-12-20T16:59:05;6.60;99.90
782;DHT22;374;52.568;13.402;2022-12-20T17:01:33;6.60;99.90
782;DHT22;374;52.568;13.402;2022-12-20T17:04:00;6.60;99.90
782;DHT22;374;52.568;13.402;2022-12-20T17:06:25;6.50;99.90
782;DHT22;374;52.568;13.402;2022-12-20T17:08:51;6.60;99.90
782;DHT22;374;52.568;13.402;2022-12-20T17:11:22;6.50;99.90
782;DHT22;374;52.568;13.402;2022-12-20T17:13:51;6.60;99.90
782;DHT22;374;52.568;13.402;2022-12-20T17:16:18;6.60;99.90
782;DHT22;374;52.568;13.402;2022-12-20T17:18:48;6.60;99.90
782;DHT22;374;52.568;13.402;2022-12-20T17:21:33;5.70;99.90
782;DHT22;374;52.568;13.402;2022-12-20T17:24:00;6.50;99.90
782;DHT22;374;52.568;13.402;2022-12-20T17:26:27;6.60;99.90
782;DHT22;374;52.568;13.402;2022-12-20T17:28:54;6.60;99.90
782;DHT22;374;52.568;13.402;2022-12-20T17:33:51;6.50;99.90
782;DHT22;374;52.568;13.402;2022-12-20T17:36:17;6.50;99.90
782;DHT22;374;52.568;13.402;2022-12-20T17:38:43;6.40;99.90
782;DHT22;374;52.568;13.402;2022-12-20T17:41:35;6.40;99.90
782;DHT22;374;52.568;13.402;2022-12-20T17:44:02;6.40;99.90
782;DHT22;374;52.568;13.402;2022-12-20T17:46:29;6.50;99.90
782;DHT22;374;52.568;13.402;2022-12-20T17:48:55;6.50;99.90
782;DHT22;374;52.568;13.402;2022-12-20T17:51:27;6.50;99.90
782;DHT22;374;52.568;13.402;2022-12-20T17:53:57;6.40;99.90
782;DHT22;374;52.568;13.402;2022-12-20T17:56:34;6.40;99.90
782;DHT22;374;52.568;13.402;2022-12-20T17:59:02;6.50;99.90
782;DHT22;374;52.568;13.402;2022-12-20T18:01:31;6.50;99.90
782;DHT22;374;52.568;13.402;2022-12-20T18:03:59;6.50;99.90
782;DHT22;374;52.568;13.402;2022-12-20T18:06:26;6.40;99.90
782;DHT22;374;52.568;13.402;2022-12-20T18:08:54;6.50;99.90
782;DHT22;374;52.568;13.402;2022-12-20T18:11:25;6.50;99.90
782;DHT22;374;52.568;13.402;2022-12-20T18:13:52;6.50;99.90
782;DHT22;374;52.568;13.402;2022-12-20T18:16:32;6.50;99.90
782;DHT22;374;52.568;13.402;2022-12-20T18:19:17;6.50;99.90
782;DHT22;374;52.568;13.402;2022-12-20T18:21:45;7.40;99.90
782;DHT22;374;52.568;13.402;2022-12-20T18:24:12;7.80;99.90
782;DHT22;374;52.568;13.402;2022-12-20T18:26:38;6.40;99.90
782;DHT22;374;52.568;13.402;2022-12-20T18:29:04;7.10;99.90
782;DHT22;374;52.568;13.402;2022-12-20T18:31:31;6.40;99.90
782;DHT22;374;52.568;13.402;2022-12-20T18:33:57;6.10;99.90
782;DHT22;374;52.568;13.402;2022-12-20T18:36:34;6.50;99.90
782;DHT22;374;52.568;13.402;2022-12-20T18:39:01;6.30;99.90
782;DHT22;374;52.568;13.402;2022-12-20T18:41:28;6.60;99.90
782;DHT22;374;52.568;13.402;2022-12-20T18:44:04;6.60;99.90
782;DHT22;374;52.568;13.402;2022-12-20T18:46:31;6.60;99.90
782;DHT22;374;52.568;13.402;2022-12-20T18:48:58;6.50;99.90
782;DHT22;374;52.568;13.402;2022-12-20T18:51:34;6.60;99.90
782;DHT22;374;52.568;13.402;2022-12-20T18:54:05;6.60;99.90
782;DHT22;374;52.568;13.402;2022-12-20T18:56:41;6.50;99.90
782;DHT22;374;52.568;13.402;2022-12-20T18:59:07;6.60;99.90
782;DHT22;374;52.568;13.402;2022-12-20T19:01:34;6.50;99.90